Time;durP1;ratioP1;P1;durP2;ratioP2;P2;SDS_P1;SDS_P2;PMS_P1;PMS_P2;Temp;Humidity;BMP_temperature;BMP_pressure;BME280_temperature;BME280_humidity;BME280_pressure;Samples;Min_cycle;Max_cycle;Signal;HPM_P1;HPM_P2
2022/09/09 00:01:22;;;;;;;5.78;5.38;;;;;;;15.42;100.00;100398.09;6050419;23;20091;-72
2022/09/09 00:04:15;;;;;;;5.10;4.90;;;;;;;14.09;100.00;100204.69;6039961;23;20064;-72
2022/09/09 00:07:02;;;;;;;5.10;4.90;;;;;;;15.35;100.00;100398.56;6037309;23;20023;-71
2022/09/09 00:09:31;;;;;;;5.10;4.90;;;;;;;15.16;100.00;100383.25;6048747;23;20078;-72
2022/09/09 00:12:14;;;;;;;5.28;5.07;;;;;;;15.32;100.00;100385.56;6053065;23;20125;-71
2022/09/09 00:14:50;;;;;;;;;;;;;;;14.08;100.00;100187.16;6007900;23;20022;-71
2022/09/09 00:17:33;;;;;;;6.32;6.03;;;;;;;15.24;100.00;100376.56;6045110;23;19910;-71
2022/09/09 00:20:02;;;;;;;;;;;;;;;14.01;100.00;100190.38;6061472;23;20080;-72
2022/09/09 00:22:31;;;;;;;5.40;5.20;;;;;;;15.24;100.00;100376.56;6047020;23;19918;-71
2022/09/09 00:25:11;;;;;;;5.30;5.10;;;;;;;15.26;100.00;100379.91;6057331;23;20034;-72
2022/09/09 00:27:44;;;;;;;5.10;4.90;;;;;;;15.08;100.00;100343.34;6049710;23;20037;-72
2022/09/09 00:30:10;;;;;;;6.20;5.90;;;;;;;15.35;100.00;100369.47;6050499;23;20101;-71
2022/09/09 00:32:37;;;;;;;5.30;5.00;;;;;;;15.18;100.00;100346.13;6042010;23;20725;-70
2022/09/09 00:35:10;;;;;;;5.38;5.15;;;;;;;15.44;100.00;100377.66;6032986;23;20540;-71
2022/09/09 00:37:39;;;;;;;5.10;4.90;;;;;;;15.47;100.00;100380.88;6052781;23;20085;-72
2022/09/09 00:40:22;;;;;;;6.03;5.72;;;;;;;15.51;100.00;100392.06;6053346;23;20726;-70
2022/09/09 00:42:58;;;;;;;5.75;5.40;;;;;;;15.53;100.00;100376.91;6056143;23;20042;-72
2022/09/09 00:45:43;;;;;;;5.53;5.25;;;;;;;15.51;100.00;100370.91;6053780;23;20092;-72
2022/09/09 00:48:11;;;;;;;7.00;6.70;;;;;;;15.49;100.00;100371.03;6046319;23;20025;-71
2022/09/09 00:50:49;;;;;;;5.32;5.07;;;;;;;15.46;100.00;100367.78;6055409;23;20494;-72
2022/09/09 00:53:21;;;;;;;6.85;6.35;;;;;;;15.44;100.00;100372.38;6042425;23;20014;-71
2022/09/09 00:56:13;;;;;;;5.10;4.90;;;;;;;15.31;100.00;100356.59;6049604;23;20011;-72
2022/09/09 00:58:56;;;;;;;5.30;5.00;;;;;;;15.40;100.00;100384.97;6039432;23;20027;-72
2022/09/09 01:01:22;;;;;;;6.13;5.82;;;;;;;15.27;100.00;100371.00;6055378;23;20072;-70
2022/09/09 01:03:59;;;;;;;5.20;5.00;;;;;;;15.21;100.00;100372.31;6063648;23;20490;-70
2022/09/09 01:06:39;;;;;;;5.63;5.32;;;;;;;15.19;100.00;100381.34;6044992;23;20019;-72
2022/09/09 01:09:29;;;;;;;5.95;5.68;;;;;;;15.10;100.00;100370.50;6054517;23;20031;-71
2022/09/09 01:12:17;;;;;;;5.50;5.20;;;;;;;15.01;100.00;100379.13;6026238;23;20097;-71
2022/09/09 01:14:56;;;;;;;5.32;5.13;;;;;;;14.95;100.00;100374.31;6060703;23;20030;-72
2022/09/09 01:17:45;;;;;;;4.97;4.78;;;;;;;14.85;100.00;100371.50;6053197;23;20014;-72
2022/09/09 01:20:47;;;;;;;7.28;6.88;;;;;;;14.77;100.00;100368.63;6056648;23;20483;-72
2022/09/09 01:23:13;;;;;;;6.68;6.38;;;;;;;14.72;100.00;100370.78;6021400;23;20087;-71
2022/09/09 01:26:10;;;;;;;5.03;4.82;;;;;;;14.67;100.00;100365.84;6059163;23;20110;-71
2022/09/09 01:28:38;;;;;;;5.15;4.95;;;;;;;13.34;100.00;100149.56;6052112;23;20018;-72
2022/09/09 01:31:08;;;;;;;6.10;5.80;;;;;;;14.63;100.00;100372.28;6052160;23;20416;-73
2022/09/09 01:33:35;;;;;;;4.93;4.72;;;;;;;13.69;100.00;100235.78;6049172;23;20018;-72
2022/09/09 01:36:09;;;;;;;5.25;5.05;;;;;;;14.66;100.00;100358.88;6056023;23;20034;-72
2022/09/09 01:38:36;;;;;;;5.20;4.97;;;;;;;14.54;100.00;100322.78;6057364;23;20661;-71
2022/09/09 01:41:03;;;;;;;5.85;5.25;;;;;;;14.86;100.00;100359.16;6047856;23;20019;-72
2022/09/09 01:43:30;;;;;;;5.82;5.53;;;;;;;13.86;100.00;100171.25;6047086;23;20570;-73
2022/09/09 01:46:00;;;;;;;5.30;5.10;;;;;;;14.97;100.00;100343.31;6055005;23;20011;-72
2022/09/09 01:48:27;;;;;;;5.03;4.82;;;;;;;14.02;100.00;100221.09;6056689;23;20022;-73
2022/09/09 01:50:54;;;;;;;5.88;5.38;;;;;;;14.56;100.00;100281.28;6065355;23;20651;-73
2022/09/09 01:53:21;;;;;;;6.07;5.78;;;;;;;15.02;100.00;100359.69;6047626;23;20022;-73
2022/09/09 01:56:02;;;;;;;5.25;5.03;;;;;;;14.92;100.00;100337.56;6054151;23;20102;-72
2022/09/09 01:58:42;;;;;;;18.35;17.45;;;;;;;15.10;100.00;100359.94;6000415;23;20945;-72
2022/09/09 02:01:27;;;;;;;6.60;6.30;;;;;;;15.15;100.00;100351.66;5987205;23;20329;-72
2022/09/09 02:03:56;;;;;;;5.20;5.00;;;;;;;15.18;100.00;100334.72;6061481;23;20606;-72
2022/09/09 02:06:30;;;;;;;7.28;5.10;;;;;;;15.27;100.00;100347.22;6049773;23;20038;-72
2022/09/09 02:08:59;;;;;;;5.50;5.20;;;;;;;15.28;100.00;100352.41;6067860;23;20013;-72
2022/09/09 02:11:28;;;;;;;5.57;5.28;;;;;;;13.99;100.00;100131.59;6055423;23;20026;-71
2022/09/09 02:14:02;;;;;;;5.35;5.05;;;;;;;14.82;100.00;100267.91;6054121;23;20006;-70
2022/09/09 02:16:37;;;;;;;5.15;4.95;;;;;;;14.40;100.00;100201.53;6028577;23;20026;-71
2022/09/09 02:19:24;;;;;;;6.07;5.65;;;;;;;15.33;100.00;100349.38;6058646;23;20049;-71
2022/09/09 02:21:54;;;;;;;5.47;5.18;;;;;;;15.32;100.00;100345.91;6053226;23;20026;-70
2022/09/09 02:24:21;;;;;;;5.43;5.22;;;;;;;15.31;100.00;100340.72;6039094;23;20018;-70
2022/09/09 02:26:53;;;;;;;5.60;5.10;;;;;;;15.27;100.00;100348.06;6051217;23;20026;-71
2022/09/09 02:29:26;;;;;;;6.50;6.20;;;;;;;15.15;100.00;100331.38;6018927;23;20647;-71
2022/09/09 02:31:56;;;;;;;5.25;5.05;;;;;;;15.17;100.00;100352.38;6018320;23;20031;-70
2022/09/09 02:34:24;;;;;;;5.40;5.20;;;;;;;15.09;100.00;100342.38;6026390;23;20026;-71
2022/09/09 02:36:55;;;;;;;5.55;5.25;;;;;;;15.11;100.00;100345.78;6024340;23;20723;-72
2022/09/09 02:39:21;;;;;;;5.88;5.57;;;;;;;15.11;100.00;100351.06;6022584;23;20018;-71
2022/09/09 02:41:47;;;;;;;5.97;5.40;;;;;;;14.99;100.00;100325.56;6034221;23;20414;-70
2022/09/09 02:44:17;;;;;;;6.43;6.13;;;;;;;13.66;100.00;100114.72;6019314;23;20385;-72
2022/09/09 02:47:05;;;;;;;6.93;5.53;;;;;;;15.09;100.00;100339.75;6033049;23;20018;-70
2022/09/09 02:49:40;;;;;;;5.07;4.80;;;;;;;15.07;100.00;100340.81;6017690;23;20258;-70
2022/09/09 02:52:13;;;;;;;5.40;5.10;;;;;;;15.06;100.00;100337.34;6021665;23;20019;-70
2022/09/09 02:54:40;;;;;;;5.10;4.90;;;;;;;14.63;100.00;100266.63;6023614;23;20030;-71
2022/09/09 02:57:11;;;;;;;6.40;6.10;;;;;;;15.05;100.00;100327.72;6017949;23;20027;-71
2022/09/09 02:59:39;;;;;;;5.10;4.90;;;;;;;15.06;100.00;100336.50;6041166;23;20085;-71
2022/09/09 03:02:06;;;;;;;5.82;5.43;;;;;;;14.96;100.00;100313.44;6021311;23;20714;-71
2022/09/09 03:04:35;;;;;;;5.53;5.25;;;;;;;14.94;100.00;100309.22;6018383;23;20401;-71
2022/09/09 03:07:03;;;;;;;5.90;5.40;;;;;;;15.06;100.00;100332.06;6024437;23;20023;-71
2022/09/09 03:09:30;;;;;;;5.25;4.95;;;;;;;15.06;100.00;100325.94;6021412;23;20070;-69
2022/09/09 03:11:57;;;;;;;5.28;4.97;;;;;;;13.65;100.00;100084.03;6000080;23;20028;-70
2022/09/09 03:14:25;;;;;;;5.05;4.85;;;;;;;15.04;100.00;100326.06;5999846;23;20069;-73
2022/09/09 03:16:52;;;;;;;5.00;4.80;;;;;;;15.04;100.00;100333.16;6017330;23;20021;-71
2022/09/09 03:19:19;;;;;;;7.53;5.93;;;;;;;15.04;100.00;100325.22;6043340;23;20176;-70
2022/09/09 03:21:47;;;;;;;5.00;4.80;;;;;;;13.71;100.00;100102.03;6016933;23;20031;-69
2022/09/09 03:24:13;;;;;;;6.50;6.20;;;;;;;15.01;100.00;100314.88;6029993;23;20030;-72
2022/09/09 03:26:44;;;;;;;4.97;4.78;;;;;;;15.07;100.00;100322.31;6024414;23;20030;-69
2022/09/09 03:29:12;;;;;;;6.82;6.32;;;;;;;13.38;100.00;100035.06;6019208;23;20022;-69
2022/09/09 03:31:39;;;;;;;5.40;5.10;;;;;;;15.10;100.00;100333.50;6016064;23;20085;-71
2022/09/09 03:34:06;;;;;;;6.57;6.28;;;;;;;14.89;100.00;100284.94;6022150;23;20661;-71
2022/09/09 03:36:32;;;;;;;4.97;4.78;;;;;;;15.14;100.00;100344.69;6016548;23;20031;-70
2022/09/09 03:39:00;;;;;;;4.97;4.78;;;;;;;15.07;100.00;100335.53;5998423;23;20526;-71
2022/09/09 03:41:27;;;;;;;5.13;4.93;;;;;;;15.11;100.00;100319.34;6021578;23;20027;-72
2022/09/09 03:43:53;;;;;;;5.10;4.90;;;;;;;15.12;100.00;100318.38;5996928;23;20031;-71
2022/09/09 03:46:22;;;;;;;5.80;5.53;;;;;;;14.63;100.00;100245.50;6027032;23;20026;-70
2022/09/09 03:48:48;;;;;;;5.13;4.93;;;;;;;15.11;100.00;100316.72;5987745;23;20019;-71
2022/09/09 03:51:15;;;;;;;6.22;5.93;;;;;;;15.11;100.00;100315.84;6035903;23;20647;-70
2022/09/09 03:53:42;;;;;;;5.20;5.00;;;;;;;15.12;100.00;100322.81;6005115;23;20023;-72
2022/09/09 03:56:09;;;;;;;6.65;6.35;;;;;;;14.45;100.00;100207.28;6029850;23;20014;-71
2022/09/09 03:58:37;;;;;;;5.25;5.05;;;;;;;15.09;100.00;100315.94;6027048;23;20090;-71
2022/09/09 04:01:08;;;;;;;5.82;5.53;;;;;;;15.09;100.00;100318.59;6025508;23;20011;-73
2022/09/09 04:03:35;;;;;;;5.35;5.00;;;;;;;15.12;100.00;100322.81;6016334;23;20027;-70
2022/09/09 04:06:03;;;;;;;5.57;5.25;;;;;;;15.08;100.00;100314.28;6018113;23;20014;-71
2022/09/09 04:08:33;;;;;;;5.47;5.15;;;;;;;15.09;100.00;100321.25;6021210;23;21161;-71
2022/09/09 04:11:06;;;;;;;5.00;4.80;;;;;;;15.04;100.00;100320.78;6025950;23;20080;-72
2022/09/09 04:13:34;;;;;;;5.30;5.00;;;;;;;15.11;100.00;100332.56;6024520;23;21507;-73
2022/09/09 04:16:02;;;;;;;5.18;4.88;;;;;;;15.05;100.00;100311.88;6027541;23;20023;-72
2022/09/09 04:18:28;;;;;;;5.60;5.15;;;;;;;15.08;100.00;100305.53;6021198;23;20041;-71
2022/09/09 04:20:57;;;;;;;5.10;4.90;;;;;;;13.82;100.00;100099.44;6049094;23;20027;-71
2022/09/09 04:23:25;;;;;;;5.72;5.43;;;;;;;15.14;100.00;100311.16;6022805;23;20073;-72
2022/09/09 04:25:54;;;;;;;5.07;4.88;;;;;;;15.16;100.00;100322.47;5998339;23;20066;-72
2022/09/09 04:28:23;;;;;;;7.80;6.35;;;;;;;15.16;100.00;100311.88;6040967;23;20092;-71
2022/09/09 04:30:50;;;;;;;5.32;5.03;;;;;;;15.18;100.00;100313.59;6040880;23;20018;-72
2022/09/09 04:33:19;;;;;;;6.70;6.40;;;;;;;14.08;100.00;100130.91;6062528;23;20018;-70
2022/09/09 04:35:48;;;;;;;5.40;5.00;;;;;;;15.19;100.00;100312.59;6036128;23;20014;-70
2022/09/09 04:38:16;;;;;;;6.97;6.53;;;;;;;15.12;100.00;100321.00;6055214;23;20034;-71
2022/09/09 04:40:51;;;;;;;5.30;5.10;;;;;;;14.62;100.00;100217.44;6039846;23;20424;-72
2022/09/09 04:43:19;;;;;;;6.47;6.18;;;;;;;15.17;100.00;100312.72;6038180;23;20014;-73
2022/09/09 04:45:50;;;;;;;5.32;5.03;;;;;;;15.16;100.00;100311.88;6030118;23;20021;-71
2022/09/09 04:48:18;;;;;;;6.78;6.47;;;;;;;15.16;100.00;100313.69;6049895;23;20043;-71
2022/09/09 04:50:54;;;;;;;5.00;4.80;;;;;;;15.18;100.00;100308.31;6059847;23;20026;-73
2022/09/09 04:53:20;;;;;;;6.30;6.00;;;;;;;15.05;100.00;100288.06;6033879;23;20033;-71
2022/09/09 04:55:47;;;;;;;5.35;5.15;;;;;;;15.20;100.00;100307.22;6046661;23;20155;-71
2022/09/09 04:58:13;;;;;;;6.57;5.93;;;;;;;15.21;100.00;100318.63;6046993;23;20014;-71
2022/09/09 05:00:40;;;;;;;5.10;4.90;;;;;;;15.18;100.00;100308.31;6048851;23;20047;-70
2022/09/09 05:03:08;;;;;;;6.15;5.85;;;;;;;15.16;100.00;100306.59;6023327;23;20539;-69
2022/09/09 05:05:35;;;;;;;5.22;5.00;;;;;;;15.24;100.00;100313.09;6050997;23;20091;-70
2022/09/09 05:08:04;;;;;;;5.32;5.03;;;;;;;15.26;100.00;100313.81;6052861;23;20022;-68
2022/09/09 05:10:31;;;;;;;5.50;5.10;;;;;;;15.33;100.00;100313.22;6057377;23;20026;-71
2022/09/09 05:12:57;;;;;;;5.28;4.97;;;;;;;15.36;100.00;100310.34;6044645;23;20006;-70
2022/09/09 05:15:24;;;;;;;5.72;5.43;;;;;;;15.00;100.00;100274.41;6058744;23;20786;-69
2022/09/09 05:17:52;;;;;;;5.07;4.88;;;;;;;15.40;100.00;100303.00;6058700;23;20069;-69
2022/09/09 05:20:18;;;;;;;6.95;6.65;;;;;;;15.36;100.00;100309.50;6052735;23;20021;-71
2022/09/09 05:22:45;;;;;;;5.53;5.10;;;;;;;14.41;100.00;100137.19;6042516;23;20053;-70
2022/09/09 05:25:11;;;;;;;6.05;5.75;;;;;;;15.33;100.00;100281.50;6051373;23;20363;-69
2022/09/09 05:27:38;;;;;;;5.18;4.90;;;;;;;15.46;100.00;100299.03;6055203;23;20070;-69
2022/09/09 05:30:05;;;;;;;5.65;5.35;;;;;;;15.50;100.00;100296.03;6047372;23;20022;-69
2022/09/09 05:32:34;;;;;;;5.38;4.97;;;;;;;15.51;100.00;100294.22;6062207;23;20025;-68
2022/09/09 05:35:01;;;;;;;4.90;4.70;;;;;;;15.53;100.00;100294.94;6050100;23;20015;-69
2022/09/09 05:37:27;;;;;;;5.00;4.80;;;;;;;15.54;100.00;100300.09;6072307;23;20040;-69
2022/09/09 05:39:54;;;;;;;4.90;4.70;;;;;;;15.56;100.00;100302.63;6050664;23;20022;-69
2022/09/09 05:42:20;;;;;;;6.80;6.35;;;;;;;15.54;100.00;100292.16;6067061;23;20007;-69
2022/09/09 05:44:46;;;;;;;5.28;4.97;;;;;;;15.59;100.00;100297.09;6069032;23;20125;-69
2022/09/09 05:47:14;;;;;;;6.57;6.18;;;;;;;15.50;100.00;100274.88;6045625;23;21544;-69
2022/09/09 05:49:40;;;;;;;5.57;5.20;;;;;;;15.73;100.00;100298.66;6059868;23;20029;-69
2022/09/09 05:52:07;;;;;;;5.00;4.80;;;;;;;15.80;100.00;100305.16;6046678;23;21016;-69
2022/09/09 05:54:33;;;;;;;8.52;5.38;;;;;;;15.86;100.00;100304.66;6053985;23;20029;-69
2022/09/09 05:57:00;;;;;;;5.10;4.90;;;;;;;15.95;100.00;100309.19;6051138;23;20034;-69
2022/09/09 05:59:26;;;;;;;5.00;4.80;;;;;;;15.99;100.00;100298.38;6035186;23;20118;-69
2022/09/09 06:01:53;;;;;;;5.32;5.10;;;;;;;16.08;100.00;100302.94;6034330;23;20092;-69
2022/09/09 06:04:24;;;;;;;6.65;6.15;;;;;;;14.97;100.00;100142.50;6066413;23;20304;-70
2022/09/09 06:06:50;;;;;;;5.38;5.07;;;;;;;16.18;100.00;100322.38;6045807;23;20114;-70
2022/09/09 06:09:16;;;;;;;6.30;5.97;;;;;;;16.28;100.00;100306.59;6059669;23;20022;-69
2022/09/09 06:11:43;;;;;;;5.13;4.78;;;;;;;16.33;100.00;100301.72;6045425;23;20681;-70
2022/09/09 06:14:09;;;;;;;6.07;5.78;;;;;;;16.34;100.00;100304.25;6045138;23;20085;-70
2022/09/09 06:16:37;;;;;;;5.20;5.00;;;;;;;15.10;100.00;100118.59;6033543;23;20511;-70
2022/09/09 06:19:04;;;;;;;7.43;5.45;;;;;;;15.10;100.00;100103.56;6047128;23;20028;-69
2022/09/09 06:21:33;;;;;;;5.20;5.00;;;;;;;15.41;100.00;100161.06;6021039;23;20593;-68
2022/09/09 06:23:59;;;;;;;5.72;5.20;;;;;;;16.33;100.00;100302.56;6030807;23;20093;-70
2022/09/09 06:26:32;;;;;;;9.65;5.13;;;;;;;16.35;100.00;100305.09;6018296;23;20022;-70
2022/09/09 06:28:59;;;;;;;5.45;5.15;;;;;;;16.38;100.00;100307.50;6043097;23;20107;-68
2022/09/09 06:31:30;;;;;;;5.45;5.07;;;;;;;16.39;100.00;100308.34;6032848;23;20040;-69
2022/09/09 06:33:58;;;;;;;5.65;5.35;;;;;;;16.38;100.00;100317.22;6048862;23;20030;-70
2022/09/09 06:36:30;;;;;;;5.80;5.50;;;;;;;16.40;100.00;100337.34;6063700;23;20029;-71
2022/09/09 06:38:58;;;;;;;5.18;4.97;;;;;;;16.45;100.00;100311.31;6048624;23;20586;-69
2022/09/09 06:41:28;;;;;;;5.70;5.40;;;;;;;16.54;100.00;100307.91;6064340;23;20122;-69
2022/09/09 06:43:57;;;;;;;5.35;4.90;;;;;;;16.69;100.00;100311.06;6035103;23;20041;-69
2022/09/09 06:46:27;;;;;;;5.80;5.45;;;;;;;16.90;100.00;100312.91;6056848;23;20006;-69
2022/09/09 06:48:55;;;;;;;5.07;4.88;;;;;;;17.19;100.00;100302.44;6030845;23;20033;-69
2022/09/09 06:51:25;;;;;;;6.15;5.75;;;;;;;17.43;100.00;100288.03;6046297;23;20603;-69
2022/09/09 06:53:54;;;;;;;5.80;5.30;;;;;;;17.78;100.00;100289.38;6048153;23;20006;-69
2022/09/09 06:56:24;;;;;;;5.60;5.30;;;;;;;18.06;100.00;100291.28;6052173;23;20577;-70
2022/09/09 06:58:53;;;;;;;5.43;5.13;;;;;;;18.34;100.00;100291.41;6059451;23;20034;-70
2022/09/09 07:01:24;;;;;;;7.28;6.78;;;;;;;18.43;98.55;100279.13;6041839;23;20026;-69
2022/09/09 07:03:54;;;;;;;6.43;5.40;;;;;;;18.71;98.33;100288.88;6036013;23;20038;-70
2022/09/09 07:06:24;;;;;;;6.15;5.85;;;;;;;18.77;96.41;100290.13;6030638;23;20027;-69
2022/09/09 07:08:52;;;;;;;5.80;5.50;;;;;;;19.01;95.45;100292.31;6055175;23;20034;-69
2022/09/09 07:11:25;;;;;;;6.57;6.05;;;;;;;19.03;94.70;100290.34;6047141;23;20183;-69
2022/09/09 07:13:52;;;;;;;5.47;5.28;;;;;;;19.06;94.15;100300.72;6052932;23;20026;-69
2022/09/09 07:16:20;;;;;;;7.10;6.80;;;;;;;19.03;94.51;100303.66;6037696;23;20444;-69
2022/09/09 07:18:46;;;;;;;5.30;5.10;;;;;;;18.87;94.91;100306.91;6061068;23;20021;-69
2022/09/09 07:21:14;;;;;;;5.70;5.40;;;;;;;17.64;94.89;100107.50;6041035;23;20041;-69
2022/09/09 07:23:41;;;;;;;5.90;5.50;;;;;;;18.90;95.53;100305.78;6031118;23;20484;-69
2022/09/09 07:26:16;;;;;;;6.43;5.38;;;;;;;19.04;93.97;100315.13;6042947;23;20039;-70
2022/09/09 07:28:43;;;;;;;5.88;5.57;;;;;;;19.08;89.97;100297.91;6052820;23;20082;-71
2022/09/09 07:31:16;;;;;;;6.68;6.38;;;;;;;19.46;88.95;100320.03;6049537;23;20022;-69
2022/09/09 07:33:44;;;;;;;5.68;5.38;;;;;;;19.70;87.58;100316.81;6045914;23;20022;-69
2022/09/09 07:36:25;;;;;;;6.82;6.53;;;;;;;19.67;85.86;100314.47;6043809;23;20018;-70
2022/09/09 07:39:01;;;;;;;5.45;5.15;;;;;;;19.70;86.40;100322.13;6036585;23;20030;-69
2022/09/09 07:41:37;;;;;;;5.60;5.30;;;;;;;19.69;86.07;100305.34;6058013;23;20010;-69
2022/09/09 07:44:06;;;;;;;6.95;6.10;;;;;;;19.58;83.74;100336.63;6034599;23;20042;-69
2022/09/09 07:46:34;;;;;;;6.63;5.25;;;;;;;19.59;84.53;100341.81;6057755;23;20818;-69
2022/09/09 07:49:02;;;;;;;5.78;5.47;;;;;;;19.54;85.01;100320.13;6047973;23;20028;-68
2022/09/09 07:51:31;;;;;;;6.15;5.85;;;;;;;19.67;83.67;100349.91;6049915;23;20072;-69
2022/09/09 07:54:01;;;;;;;5.53;5.22;;;;;;;19.38;83.54;100286.16;6057975;23;20072;-70
2022/09/09 07:56:29;;;;;;;5.22;5.03;;;;;;;19.69;81.84;100349.78;6050755;23;20605;-70
2022/09/09 07:58:57;;;;;;;5.80;5.40;;;;;;;19.53;84.19;100356.56;6059829;23;20029;-68
2022/09/09 08:01:31;;;;;;;7.00;6.07;;;;;;;19.60;84.43;100354.13;6030542;23;20018;-68
2022/09/09 08:04:06;;;;;;;5.65;5.35;;;;;;;18.28;81.13;100159.16;6026366;23;20046;-69
2022/09/09 08:06:37;;;;;;;5.93;5.53;;;;;;;19.30;79.75;100356.09;6047103;23;20089;-69
2022/09/09 08:09:04;;;;;;;5.90;5.60;;;;;;;19.18;78.85;100364.38;6039764;23;20534;-69
2022/09/09 08:11:32;;;;;;;5.65;5.30;;;;;;;19.22;80.37;100360.44;6034983;23;20649;-69
2022/09/09 08:14:05;;;;;;;5.70;5.30;;;;;;;19.22;80.25;100360.44;6037164;23;20093;-69
2022/09/09 08:16:36;;;;;;;6.00;5.38;;;;;;;19.41;78.85;100354.22;6046879;23;20022;-69
2022/09/09 08:19:03;;;;;;;5.68;5.25;;;;;;;19.44;76.76;100362.75;6029193;23;20099;-67
2022/09/09 08:21:32;;;;;;;5.50;5.30;;;;;;;19.69;78.01;100358.59;6047559;23;20033;-69
2022/09/09 08:24:01;;;;;;;5.70;5.40;;;;;;;18.77;76.93;100191.75;6048953;23;20491;-69
2022/09/09 08:26:29;;;;;;;6.03;5.68;;;;;;;19.93;74.75;100357.25;6044537;23;20041;-70
2022/09/09 08:28:58;;;;;;;5.43;5.22;;;;;;;18.67;74.38;100164.38;6057378;23;20026;-72
2022/09/09 08:31:27;;;;;;;6.30;5.85;;;;;;;19.98;75.76;100362.09;6055651;23;20017;-69
2022/09/09 08:33:54;;;;;;;5.90;5.53;;;;;;;19.92;75.95;100353.75;6045145;23;20068;-69
2022/09/09 08:36:23;;;;;;;6.25;5.85;;;;;;;19.94;76.57;100356.22;6046732;23;20411;-68
2022/09/09 08:38:53;;;;;;;5.80;5.50;;;;;;;19.77;76.95;100338.41;6034313;23;20015;-71
2022/09/09 08:41:35;;;;;;;6.28;5.57;;;;;;;20.04;76.38;100359.69;6027659;23;20022;-69
2022/09/09 08:44:11;;;;;;;5.60;5.20;;;;;;;20.17;76.85;100359.34;6043217;23;20080;-71
2022/09/09 08:46:57;;;;;;;6.75;6.45;;;;;;;20.28;75.42;100363.59;6042858;23;20027;-69
2022/09/09 08:49:46;;;;;;;6.00;5.70;;;;;;;19.91;73.87;100370.69;6050689;23;20137;-71
2022/09/09 08:52:18;;;;;;;5.80;5.45;;;;;;;19.73;72.78;100375.16;6056170;23;20090;-70
2022/09/09 08:54:46;;;;;;;6.88;6.57;;;;;;;19.64;73.59;100344.03;6056753;23;20034;-70
2022/09/09 08:57:27;;;;;;;5.30;5.10;;;;;;;19.82;74.07;100362.75;6052732;23;20234;-70
2022/09/09 08:59:56;;;;;;;5.80;5.50;;;;;;;19.97;74.17;100371.94;6035905;23;20034;-70
2022/09/09 09:02:32;;;;;;;5.75;5.45;;;;;;;20.01;73.31;100377.81;6050617;23;20038;-71
2022/09/09 09:05:12;;;;;;;6.07;5.68;;;;;;;19.92;73.78;100361.72;6046636;23;20034;-70
2022/09/09 09:07:58;;;;;;;7.18;6.60;;;;;;;19.98;72.84;100378.91;6047076;23;20015;-69
2022/09/09 09:10:33;;;;;;;5.97;5.68;;;;;;;19.68;72.67;100396.00;6048420;23;20647;-70
2022/09/09 09:13:22;;;;;;;5.90;5.50;;;;;;;19.56;72.42;100397.16;6045501;23;20496;-70
2022/09/09 09:16:06;;;;;;;6.10;5.80;;;;;;;19.66;73.58;100400.63;6029588;23;20087;-71
2022/09/09 09:18:33;;;;;;;5.82;5.55;;;;;;;18.51;74.41;100192.38;6039292;23;20089;-71
2022/09/09 09:21:24;;;;;;;5.75;5.45;;;;;;;19.77;71.79;100403.16;6039769;23;20034;-70
2022/09/09 09:24:00;;;;;;;5.90;5.60;;;;;;;19.92;71.12;100396.34;6040448;23;20026;-70
2022/09/09 09:26:32;;;;;;;5.55;5.25;;;;;;;19.93;70.15;100395.34;6037767;23;20028;-70
2022/09/09 09:29:08;;;;;;;5.70;5.45;;;;;;;20.15;71.71;100400.44;6050050;23;20667;-71
2022/09/09 09:31:34;;;;;;;7.13;6.75;;;;;;;19.92;69.64;100361.72;6035056;23;20055;-70
2022/09/09 09:34:02;;;;;;;5.80;5.40;;;;;;;20.30;69.58;100388.25;6056912;23;20037;-69
2022/09/09 09:36:58;;;;;;;5.88;5.57;;;;;;;20.25;71.52;100386.06;6035855;23;20612;-70
2022/09/09 09:39:27;;;;;;;5.22;5.03;;;;;;;19.70;71.16;100375.38;6062431;23;20037;-71
2022/09/09 09:42:17;;;;;;;5.85;5.53;;;;;;;20.07;70.69;100396.69;6055825;23;20103;-69
2022/09/09 09:44:49;;;;;;;5.57;5.22;;;;;;;20.10;70.95;100393.69;6062385;23;20026;-70
2022/09/09 09:47:20;;;;;;;5.43;5.13;;;;;;;20.23;70.96;100397.88;6028288;23;20007;-70
2022/09/09 09:49:59;;;;;;;5.55;5.35;;;;;;;19.38;70.89;100221.47;6065024;23;20957;-72
2022/09/09 09:52:28;;;;;;;5.60;5.20;;;;;;;20.35;70.40;100396.66;6054395;23;20019;-70
2022/09/09 09:54:57;;;;;;;5.60;5.30;;;;;;;20.30;70.59;100401.59;6013430;23;20019;-69
2022/09/09 09:57:29;;;;;;;5.90;5.60;;;;;;;19.60;70.93;100244.16;6016144;23;20022;-70
2022/09/09 10:00:17;;;;;;;5.80;5.50;;;;;;;20.74;70.16;100398.22;6030844;23;20690;-70
2022/09/09 10:02:44;;;;;;;7.40;6.75;;;;;;;20.96;69.12;100395.06;6046677;23;20544;-70
2022/09/09 10:05:14;;;;;;;5.32;5.13;;;;;;;21.29;69.44;100384.63;6052171;23;20084;-71
2022/09/09 10:07:40;;;;;;;6.78;6.47;;;;;;;20.97;67.40;100322.03;6053944;23;20019;-70
2022/09/09 10:10:15;;;;;;;5.80;5.50;;;;;;;20.96;66.68;100307.03;6062186;23;20042;-69
2022/09/09 10:13:00;;;;;;;5.80;5.50;;;;;;;21.27;67.68;100378.59;6046615;23;20010;-69
2022/09/09 10:15:38;;;;;;;5.80;5.50;;;;;;;21.36;67.55;100376.81;6046235;23;20084;-69
2022/09/09 10:18:42;;;;;;;6.32;5.93;;;;;;;21.37;69.29;100375.81;6024433;23;20412;-69
2022/09/09 10:21:32;;;;;;;5.93;5.63;;;;;;;21.59;67.62;100369.09;6057395;23;20014;-71
2022/09/09 10:24:05;;;;;;;5.50;5.30;;;;;;;22.16;64.88;100365.81;6047512;23;20045;-70
2022/09/09 10:26:49;;;;;;;6.78;6.18;;;;;;;22.23;65.66;100367.69;6049885;23;20080;-71
2022/09/09 10:29:47;;;;;;;5.50;5.30;;;;;;;22.25;65.30;100357.69;6009801;23;20035;-69
2022/09/09 10:32:26;;;;;;;6.05;5.63;;;;;;;22.21;64.01;100363.47;5990665;23;20700;-70
2022/09/09 10:34:57;;;;;;;5.78;5.47;;;;;;;22.12;64.49;100370.66;6023880;23;20666;-70
2022/09/09 10:37:39;;;;;;;5.65;5.45;;;;;;;22.03;64.72;100363.59;6021218;23;20034;-69
2022/09/09 10:40:21;;;;;;;5.80;5.50;;;;;;;20.83;62.92;100210.59;6022550;23;20014;-71
2022/09/09 10:42:48;;;;;;;6.20;5.90;;;;;;;21.66;64.79;100376.31;6033681;23;20141;-70
2022/09/09 10:45:26;;;;;;;5.63;5.32;;;;;;;21.34;65.84;100350.28;6001793;23;20022;-70
2022/09/09 10:48:22;;;;;;;7.03;5.90;;;;;;;21.42;65.26;100371.66;6035422;23;20038;-70
2022/09/09 10:51:19;;;;;;;6.13;5.72;;;;;;;21.49;65.94;100370.09;5991784;23;20015;-70
2022/09/09 10:54:25;;;;;;;6.75;6.43;;;;;;;21.31;65.73;100377.28;6039988;23;20666;-72
2022/09/09 10:56:58;;;;;;;5.85;5.55;;;;;;;20.39;67.26;100216.78;5877002;23;20496;-71
2022/09/09 10:59:31;;;;;;;5.88;5.57;;;;;;;21.24;66.82;100365.56;6037567;23;21150;-70
2022/09/09 11:02:32;;;;;;;5.90;5.50;;;;;;;21.19;68.37;100375.84;6035045;23;20416;-70
2022/09/09 11:05:04;;;;;;;5.50;5.30;;;;;;;20.69;75.11;100390.69;6036695;23;20038;-70
2022/09/09 11:07:40;;;;;;;6.00;5.70;;;;;;;20.45;78.72;100389.41;6035188;23;20018;-70
2022/09/09 11:10:25;;;;;;;5.68;5.38;;;;;;;20.23;79.82;100384.53;6024644;23;20030;-69
2022/09/09 11:12:56;;;;;;;5.78;5.47;;;;;;;20.36;81.21;100387.66;6021532;23;20042;-70
2022/09/09 11:15:32;;;;;;;6.30;5.93;;;;;;;20.27;81.99;100388.59;6016589;23;20089;-69
2022/09/09 11:18:03;;;;;;;5.55;5.35;;;;;;;20.30;80.19;100399.75;6029527;23;20108;-70
2022/09/09 11:20:29;;;;;;;5.85;5.55;;;;;;;20.03;78.40;100381.16;6021671;23;20081;-70
2022/09/09 11:23:02;;;;;;;5.70;5.40;;;;;;;20.23;80.33;100401.34;6021837;23;20022;-70
2022/09/09 11:25:38;;;;;;;5.95;5.70;;;;;;;20.28;80.62;100374.25;6023625;23;20043;-69
2022/09/09 11:28:11;;;;;;;5.78;5.47;;;;;;;20.50;80.33;100391.63;6057569;23;20067;-71
2022/09/09 11:31:03;;;;;;;6.88;6.57;;;;;;;20.86;82.69;100379.13;6048344;23;20056;-71
2022/09/09 11:33:49;;;;;;;6.03;5.78;;;;;;;21.35;78.17;100380.47;6053233;23;20352;-70
2022/09/09 11:36:52;;;;;;;5.70;5.40;;;;;;;21.47;76.52;100396.09;6045016;23;20043;-71
2022/09/09 11:39:31;;;;;;;5.82;5.43;;;;;;;21.64;75.02;100367.63;6004752;23;20033;-71
2022/09/09 11:42:07;;;;;;;5.70;5.50;;;;;;;21.81;73.42;100363.22;6049337;23;20029;-71
2022/09/09 11:44:34;;;;;;;6.65;6.35;;;;;;;21.75;75.48;100366.53;6064304;23;20558;-70
2022/09/09 11:47:00;;;;;;;5.60;5.40;;;;;;;20.14;73.04;100202.44;6047236;23;20873;-70